createdAt,value
2023-05-05T00:02:23.118Z,7.32
2023-05-05T00:04:49.543Z,7.07
2023-05-05T00:07:15.904Z,6.82
2023-05-05T00:09:42.809Z,6.82
2023-05-05T00:12:09.283Z,8.02
2023-05-05T00:14:35.610Z,7.25
2023-05-05T00:17:02.056Z,7.82
2023-05-05T00:19:28.426Z,7.28
2023-05-05T00:21:54.797Z,6.75
2023-05-05T00:24:21.188Z,7.00
2023-05-05T00:26:47.612Z,7.05
2023-05-05T00:29:14.044Z,7.15
2023-05-05T00:31:40.664Z,7.68
2023-05-05T00:34:07.182Z,6.95
2023-05-05T00:36:33.572Z,7.38
2023-05-05T00:39:00.067Z,7.57
2023-05-05T00:41:26.692Z,7.97
2023-05-05T00:43:53.116Z,7.40
2023-05-05T00:46:25.154Z,7.47
2023-05-05T00:48:51.875Z,6.90
2023-05-05T00:51:20.311Z,6.97
2023-05-05T00:53:47.931Z,6.10
2023-05-05T00:56:16.519Z,6.28
2023-05-05T00:58:43.953Z,6.97
2023-05-05T01:03:41.661Z,6.97
2023-05-05T01:06:26.263Z,6.82
2023-05-05T01:09:02.013Z,7.28
2023-05-05T01:11:57.663Z,7.85
2023-05-05T01:14:36.897Z,7.78
2023-05-05T01:17:15.892Z,8.23
2023-05-05T01:20:12.307Z,8.50
2023-05-05T01:22:45.144Z,9.00
2023-05-05T01:25:26.996Z,8.23
2023-05-05T01:28:11.283Z,8.60
2023-05-05T01:31:03.130Z,8.20
2023-05-05T01:33:36.809Z,8.77
2023-05-05T01:36:13.398Z,8.20
2023-05-05T01:38:42.249Z,8.38
2023-05-05T01:41:22.000Z,8.63
2023-05-05T01:43:51.018Z,7.68
2023-05-05T01:46:19.123Z,8.57
2023-05-05T01:48:48.060Z,8.30
2023-05-05T01:51:17.566Z,9.20
2023-05-05T01:53:44.225Z,8.80
2023-05-05T01:56:12.267Z,8.98
2023-05-05T01:58:41.662Z,8.73
2023-05-05T02:01:09.047Z,8.20
2023-05-05T02:06:03.581Z,8.40
2023-05-05T02:08:31.426Z,8.27
2023-05-05T02:10:58.285Z,8.23
2023-05-05T02:13:26.169Z,7.32
2023-05-05T02:15:53.276Z,8.23
2023-05-05T02:18:21.128Z,7.88
2023-05-05T02:20:47.684Z,7.63
2023-05-05T02:23:14.134Z,7.32
2023-05-05T02:25:43.589Z,7.32
2023-05-05T02:28:15.168Z,6.78
2023-05-05T02:30:42.644Z,6.68
2023-05-05T02:35:42.056Z,5.78
2023-05-05T02:38:13.861Z,6.00
2023-05-05T02:40:42.664Z,6.07
2023-05-05T02:43:11.878Z,6.07
2023-05-05T02:45:38.496Z,5.68
2023-05-05T02:48:05.269Z,5.78
2023-05-05T02:50:32.608Z,6.32
2023-05-05T02:53:00.268Z,6.18
2023-05-05T02:55:38.002Z,6.25
2023-05-05T02:58:07.897Z,5.65
2023-05-05T03:00:41.136Z,5.32
2023-05-05T03:03:16.656Z,5.57
2023-05-05T03:05:55.692Z,5.95
2023-05-05T03:08:30.040Z,5.75
2023-05-05T03:11:06.156Z,5.43
2023-05-05T03:13:35.834Z,5.40
2023-05-05T03:16:06.662Z,5.38
2023-05-05T03:18:34.395Z,5.05
2023-05-05T03:21:08.321Z,5.22
2023-05-05T03:23:36.198Z,5.13
2023-05-05T03:26:02.619Z,4.63
2023-05-05T03:28:29.189Z,5.38
2023-05-05T03:30:56.136Z,5.03
2023-05-05T03:33:22.538Z,5.05
2023-05-05T03:35:48.873Z,4.55
2023-05-05T03:38:15.330Z,5.15
2023-05-05T03:40:44.556Z,4.40
2023-05-05T03:43:11.477Z,4.28
2023-05-05T03:45:38.124Z,4.63
2023-05-05T03:48:04.966Z,4.78
2023-05-05T03:50:31.361Z,4.40
2023-05-05T03:52:57.726Z,4.80
2023-05-05T03:55:24.512Z,4.35
2023-05-05T03:57:50.884Z,4.40
2023-05-05T04:05:33.278Z,5.07
2023-05-05T04:10:57.392Z,4.70
2023-05-05T04:13:24.381Z,5.50
2023-05-05T04:15:51.071Z,5.38
2023-05-05T04:24:38.636Z,4.82
2023-05-05T04:33:18.723Z,5.25
2023-05-05T04:38:51.835Z,5.93
2023-05-05T04:41:18.255Z,5.18
2023-05-05T04:43:44.858Z,5.40
2023-05-05T04:48:59.694Z,5.82
2023-05-05T04:51:27.548Z,5.22
2023-05-05T04:53:54.039Z,5.78
2023-05-05T04:59:01.771Z,5.60
2023-05-05T05:01:28.359Z,5.43
2023-05-05T05:09:44.113Z,5.32
2023-05-05T05:12:10.571Z,5.57
2023-05-05T05:14:38.093Z,5.57
2023-05-05T05:17:05.216Z,5.78
2023-05-05T05:19:31.740Z,5.25
2023-05-05T05:38:08.274Z,6.32
2023-05-05T05:40:36.072Z,6.57
2023-05-05T05:43:03.194Z,6.60
2023-05-05T05:45:29.798Z,6.53
2023-05-05T05:47:56.396Z,6.28
2023-05-05T05:53:05.867Z,6.25
2023-05-05T05:55:32.319Z,6.30
2023-05-05T05:57:58.889Z,6.47
2023-05-05T06:00:25.419Z,6.00
2023-05-05T06:02:51.863Z,6.88
2023-05-05T06:05:18.313Z,7.03
2023-05-05T06:07:44.689Z,6.50
2023-05-05T06:10:25.199Z,6.60
2023-05-05T06:12:53.560Z,6.85
2023-05-05T06:15:19.986Z,5.88
2023-05-05T06:17:46.644Z,5.85
2023-05-05T06:20:13.936Z,6.05
2023-05-05T06:22:40.381Z,5.38
2023-05-05T06:25:07.348Z,6.03
2023-05-05T06:27:33.950Z,5.18
2023-05-05T06:30:00.676Z,5.65
2023-05-05T06:32:27.126Z,5.45
2023-05-05T06:34:53.614Z,5.00
2023-05-05T06:37:20.601Z,4.95
2023-05-05T06:39:47.218Z,5.43
2023-05-05T06:42:13.599Z,4.95
2023-05-05T06:44:39.990Z,4.72
2023-05-05T06:47:06.605Z,4.32
2023-05-05T06:49:33.377Z,4.25
2023-05-05T06:54:26.159Z,3.63
2023-05-05T06:56:52.553Z,4.20
2023-05-05T06:59:18.920Z,3.60
2023-05-05T07:01:45.343Z,4.05
2023-05-05T07:04:12.668Z,4.47
2023-05-05T07:06:39.203Z,4.57
2023-05-05T07:09:05.952Z,4.97
2023-05-05T07:11:32.352Z,4.93
2023-05-05T07:13:58.770Z,4.45
2023-05-05T07:16:26.996Z,3.85
2023-05-05T07:18:53.450Z,4.55
2023-05-05T07:21:19.951Z,4.20
2023-05-05T07:23:47.681Z,4.13
2023-05-05T07:26:15.196Z,4.53
2023-05-05T07:28:43.088Z,3.83
2023-05-05T07:31:09.638Z,4.53
2023-05-05T07:33:36.065Z,4.15
2023-05-05T07:36:02.651Z,4.45
2023-05-05T07:38:29.067Z,4.63
2023-05-05T07:40:55.408Z,4.00
2023-05-05T07:43:21.842Z,3.78
2023-05-05T07:45:48.314Z,4.40
2023-05-05T07:48:14.737Z,3.97
2023-05-05T07:50:41.202Z,3.75
2023-05-05T07:53:14.452Z,3.50
2023-05-05T07:55:41.438Z,3.65
2023-05-05T07:58:08.643Z,4.80
2023-05-05T08:00:35.567Z,3.92
2023-05-05T08:03:02.087Z,3.53
2023-05-05T08:05:28.689Z,3.50
2023-05-05T08:07:55.065Z,3.38
2023-05-05T08:10:24.546Z,3.70
2023-05-05T08:12:50.986Z,3.42
2023-05-05T08:15:17.363Z,3.47
2023-05-05T08:17:51.594Z,3.50
2023-05-05T08:20:19.616Z,3.42
2023-05-05T08:22:46.607Z,3.28
2023-05-05T08:25:14.206Z,3.22
2023-05-05T08:27:42.169Z,2.95
2023-05-05T08:30:09.835Z,3.22
2023-05-05T08:32:36.289Z,3.13
2023-05-05T08:35:03.427Z,2.72
2023-05-05T08:37:29.888Z,3.22
2023-05-05T08:39:57.689Z,3.20
2023-05-05T08:42:36.079Z,3.13
2023-05-05T08:45:04.557Z,2.95
2023-05-05T08:47:32.272Z,2.63
2023-05-05T08:49:59.685Z,2.25
2023-05-05T08:52:29.269Z,2.60
2023-05-05T08:55:06.718Z,2.10
2023-05-05T08:57:43.882Z,2.40
2023-05-05T09:00:12.846Z,2.30
2023-05-05T09:02:40.535Z,2.30
2023-05-05T09:05:07.895Z,2.00
2023-05-05T09:07:34.805Z,1.90
2023-05-05T09:10:04.554Z,1.63
2023-05-05T09:12:31.764Z,1.58
2023-05-05T09:14:59.393Z,1.52
2023-05-05T09:17:26.444Z,2.10
2023-05-05T09:20:07.465Z,1.80
2023-05-05T09:22:38.725Z,1.77
2023-05-05T09:25:13.337Z,1.80
2023-05-05T09:27:47.767Z,2.30
2023-05-05T09:30:23.996Z,1.98
2023-05-05T09:32:52.816Z,1.83
2023-05-05T09:35:20.429Z,1.95
2023-05-05T09:37:47.062Z,2.45
2023-05-05T09:40:15.632Z,2.55
2023-05-05T09:42:42.313Z,2.13
2023-05-05T09:45:17.437Z,2.17
2023-05-05T09:47:48.094Z,2.63
2023-05-05T09:50:19.023Z,2.83
2023-05-05T09:52:59.769Z,1.80
2023-05-05T09:57:53.224Z,1.88
2023-05-05T10:00:20.429Z,2.20
2023-05-05T10:02:47.072Z,2.67
2023-05-05T10:05:15.886Z,2.50
2023-05-05T10:07:44.293Z,2.60
2023-05-05T10:10:13.156Z,2.60
2023-05-05T10:12:40.770Z,3.63
2023-05-05T10:15:09.169Z,3.45
2023-05-05T10:20:19.109Z,1.23
2023-05-05T10:22:53.333Z,1.02
2023-05-05T10:25:33.433Z,1.10
2023-05-05T10:28:01.131Z,1.42
2023-05-05T10:30:31.945Z,1.35
2023-05-05T10:33:31.635Z,0.98
2023-05-05T10:36:02.321Z,0.70
2023-05-05T10:43:56.500Z,1.10
2023-05-05T10:46:23.617Z,0.80
2023-05-05T10:49:20.243Z,1.00
2023-05-05T10:51:52.413Z,1.08
2023-05-05T10:54:39.522Z,1.10
2023-05-05T10:57:10.784Z,1.00
2023-05-05T10:59:37.303Z,1.15
2023-05-05T11:02:28.022Z,1.20
2023-05-05T11:05:17.860Z,1.13
2023-05-05T11:07:46.479Z,1.65
2023-05-05T11:10:15.282Z,1.50
2023-05-05T11:12:54.582Z,1.40
2023-05-05T11:15:23.804Z,1.40
2023-05-05T11:17:50.306Z,1.30
2023-05-05T11:23:05.401Z,1.65
2023-05-05T11:25:35.314Z,1.42
2023-05-05T11:28:08.242Z,1.55
2023-05-05T11:30:36.358Z,1.80
2023-05-05T11:36:06.408Z,2.10
2023-05-05T11:38:36.467Z,2.00
2023-05-05T11:41:12.115Z,2.00
2023-05-05T11:43:39.776Z,2.60
2023-05-05T11:46:12.059Z,2.55
2023-05-05T11:48:49.277Z,3.30
2023-05-05T11:53:59.266Z,2.97
2023-05-05T11:56:26.096Z,3.30
2023-05-05T11:59:09.784Z,3.00
2023-05-05T12:01:41.012Z,3.58
2023-05-05T12:06:43.338Z,3.42
2023-05-05T12:09:20.232Z,3.72
2023-05-05T12:11:50.548Z,3.38
2023-05-05T12:14:17.082Z,3.03
2023-05-05T12:19:29.981Z,3.30
2023-05-05T12:21:56.833Z,3.35
2023-05-05T12:40:47.712Z,2.80
2023-05-05T12:43:28.295Z,2.75
2023-05-05T12:46:13.837Z,3.30
2023-05-05T12:48:44.456Z,3.05
2023-05-05T12:51:17.186Z,2.78
2023-05-05T12:53:47.588Z,2.78
2023-05-05T12:56:52.419Z,2.95
2023-05-05T12:59:21.365Z,3.03
2023-05-05T13:01:51.791Z,3.00
2023-05-05T13:04:19.507Z,3.28
2023-05-05T13:06:48.300Z,3.03
2023-05-05T13:09:30.375Z,3.35
2023-05-05T13:11:56.967Z,3.20
2023-05-05T13:14:23.553Z,3.45
2023-05-05T13:16:49.932Z,3.63
2023-05-05T13:19:16.399Z,3.97
2023-05-05T13:21:42.908Z,3.50
2023-05-05T13:24:23.434Z,3.60
2023-05-05T13:29:45.466Z,3.80
2023-05-05T13:32:12.045Z,3.83
2023-05-05T13:34:39.092Z,3.70
2023-05-05T13:37:05.795Z,3.90
2023-05-05T13:39:32.131Z,3.67
2023-05-05T13:41:58.513Z,3.80
2023-05-05T13:44:24.875Z,3.90
2023-05-05T13:46:51.283Z,3.15
2023-05-05T13:49:19.953Z,3.10
2023-05-05T13:51:47.078Z,3.40
2023-05-05T13:54:14.080Z,2.25
2023-05-05T13:56:40.718Z,2.10
2023-05-05T13:59:07.346Z,2.72
2023-05-05T14:01:33.818Z,1.65
2023-05-05T14:04:03.652Z,2.35
2023-05-05T14:06:32.400Z,2.40
2023-05-05T14:08:58.777Z,1.92
2023-05-05T14:11:25.097Z,1.75
2023-05-05T14:13:51.983Z,2.00
2023-05-05T14:16:18.818Z,1.88
2023-05-05T14:18:45.530Z,2.08
2023-05-05T14:21:12.130Z,1.55
2023-05-05T14:23:38.610Z,1.63
2023-05-05T14:26:05.371Z,1.50
2023-05-05T14:28:31.820Z,1.40
2023-05-05T14:30:58.236Z,1.10
2023-05-05T14:36:07.078Z,1.30
2023-05-05T14:47:47.605Z,1.40
2023-05-05T14:50:14.207Z,1.67
2023-05-05T14:52:40.885Z,1.58
2023-05-05T14:55:08.164Z,1.60
2023-05-05T15:00:16.989Z,1.30
2023-05-05T15:02:43.495Z,1.27
2023-05-05T15:24:04.795Z,1.52
2023-05-05T16:13:19.834Z,1.45
2023-05-05T16:15:46.495Z,1.20
2023-05-05T16:18:12.994Z,1.30
2023-05-05T16:20:39.481Z,1.80
2023-05-05T16:23:06.734Z,1.30
2023-05-05T16:38:56.555Z,1.30
2023-05-05T16:52:31.734Z,1.23
2023-05-05T17:00:46.574Z,1.33
2023-05-05T17:03:13.297Z,1.60
2023-05-05T17:08:21.709Z,0.90
2023-05-05T17:24:11.315Z,1.20
2023-05-05T17:26:38.797Z,1.23
2023-05-05T17:29:05.216Z,1.10
2023-05-05T17:31:31.572Z,1.13
2023-05-05T17:33:57.963Z,1.13
2023-05-05T17:39:06.264Z,1.00
2023-05-05T17:41:32.684Z,0.85
2023-05-05T17:43:59.454Z,0.95
2023-05-05T17:46:26.136Z,1.00
2023-05-05T17:48:53.677Z,0.90
2023-05-05T17:51:20.074Z,0.82
2023-05-05T17:53:46.494Z,1.00
2023-05-05T17:56:13.062Z,1.05
2023-05-05T17:58:39.518Z,1.15
2023-05-05T18:01:06.349Z,1.20
2023-05-05T18:03:32.930Z,1.08
2023-05-05T18:05:59.414Z,1.30
2023-05-05T18:08:25.779Z,1.00
2023-05-05T18:10:53.894Z,1.00
2023-05-05T18:13:21.294Z,1.05
2023-05-05T18:18:14.230Z,1.30
2023-05-05T18:20:40.934Z,1.48
2023-05-05T18:23:07.335Z,1.20
2023-05-05T18:28:15.967Z,1.10
2023-05-05T18:30:42.584Z,1.10
2023-05-05T18:35:51.050Z,1.25
2023-05-05T18:40:52.721Z,1.33
2023-05-05T18:43:19.081Z,1.20
2023-05-05T18:45:45.588Z,1.30
2023-05-05T18:48:12.157Z,1.38
2023-05-05T18:50:38.617Z,1.25
2023-05-05T18:53:05.026Z,1.65
2023-05-05T18:55:31.600Z,1.42
2023-05-05T18:57:58.199Z,1.60
2023-05-05T19:00:24.867Z,1.60
2023-05-05T19:02:51.492Z,1.60
2023-05-05T19:05:18.126Z,1.50
2023-05-05T19:07:45.230Z,1.77
2023-05-05T19:10:11.783Z,1.45
2023-05-05T19:12:38.221Z,1.80
2023-05-05T19:15:04.908Z,1.83
2023-05-05T19:17:32.646Z,1.77
2023-05-05T19:19:59.140Z,1.88
2023-05-05T19:22:25.652Z,1.85
2023-05-05T19:24:52.047Z,2.20
2023-05-05T19:27:18.477Z,1.90
2023-05-05T19:29:45.221Z,1.65
2023-05-05T19:32:11.727Z,1.55
2023-05-05T19:34:38.649Z,2.75
2023-05-05T19:37:05.400Z,2.05
2023-05-05T19:39:31.882Z,1.90
2023-05-05T19:41:58.882Z,1.90
2023-05-05T19:44:25.327Z,1.92
2023-05-05T19:46:53.028Z,1.83
2023-05-05T19:49:19.566Z,1.70
2023-05-05T19:51:49.894Z,2.22
2023-05-05T19:54:16.449Z,1.60
2023-05-05T19:56:42.913Z,1.75
2023-05-05T19:59:09.568Z,2.05
2023-05-05T20:01:36.177Z,2.15
2023-05-05T20:04:05.564Z,2.15
2023-05-05T20:06:32.654Z,2.78
2023-05-05T20:08:59.364Z,1.80
2023-05-05T20:11:25.951Z,2.78
2023-05-05T20:13:53.117Z,2.53
2023-05-05T20:16:21.481Z,2.90
2023-05-05T20:18:48.135Z,2.13
2023-05-05T20:21:15.029Z,2.00
2023-05-05T20:23:42.758Z,2.92
2023-05-05T20:26:09.420Z,2.95
2023-05-05T20:28:35.920Z,3.30
2023-05-05T20:31:02.314Z,3.67
2023-05-05T20:33:29.096Z,3.97
2023-05-05T20:35:55.566Z,3.85
2023-05-05T20:38:21.935Z,3.53
2023-05-05T20:40:48.341Z,3.80
2023-05-05T20:43:14.805Z,3.75
2023-05-05T20:45:41.195Z,3.78
2023-05-05T20:48:11.003Z,3.60
2023-05-05T20:50:41.383Z,3.38
2023-05-05T20:53:08.892Z,2.97
2023-05-05T20:55:35.605Z,3.20
2023-05-05T20:58:02.078Z,3.10
2023-05-05T21:00:28.423Z,3.10
2023-05-05T21:02:56.768Z,3.80
2023-05-05T21:05:23.653Z,3.70
2023-05-05T21:07:50.237Z,3.80
2023-05-05T21:10:16.600Z,3.60
2023-05-05T21:12:43.078Z,3.95
2023-05-05T21:15:10.548Z,3.50
2023-05-05T21:20:03.870Z,4.00
2023-05-05T21:22:30.291Z,3.97
2023-05-05T21:25:12.496Z,4.38
2023-05-05T21:27:38.974Z,3.63
2023-05-05T21:30:07.746Z,3.83
2023-05-05T21:32:36.001Z,3.35
2023-05-05T21:35:03.102Z,3.50
2023-05-05T21:37:29.418Z,3.38
2023-05-05T21:39:55.764Z,3.40
2023-05-05T21:42:22.278Z,3.20
2023-05-05T21:44:48.821Z,3.35
2023-05-05T21:47:16.197Z,4.07
2023-05-05T21:49:42.627Z,4.07
2023-05-05T21:52:09.015Z,3.38
2023-05-05T21:54:35.810Z,4.25
2023-05-05T21:57:02.770Z,4.50
2023-05-05T21:59:29.163Z,4.28
2023-05-05T22:01:55.597Z,3.67
2023-05-05T22:04:22.203Z,4.50
2023-05-05T22:06:48.570Z,4.60
2023-05-05T22:09:14.960Z,4.95
2023-05-05T22:11:41.351Z,2.88
2023-05-05T22:14:07.906Z,2.95
2023-05-05T22:16:34.314Z,3.42
2023-05-05T22:19:00.865Z,2.90
2023-05-05T22:21:27.761Z,3.53
2023-05-05T22:23:54.102Z,4.50
2023-05-05T22:26:20.613Z,4.03
2023-05-05T22:28:46.961Z,4.32
2023-05-05T22:31:13.461Z,4.00
2023-05-05T22:33:39.870Z,3.35
2023-05-05T22:36:06.670Z,3.33
2023-05-05T22:38:32.992Z,4.47
2023-05-05T22:40:59.310Z,4.13
2023-05-05T22:43:25.735Z,3.97
2023-05-05T22:45:52.131Z,4.13
2023-05-05T22:48:18.438Z,4.05
2023-05-05T22:50:45.560Z,4.18
2023-05-05T22:53:11.900Z,4.47
2023-05-05T22:55:38.236Z,3.97
2023-05-05T22:58:04.827Z,3.38
2023-05-05T23:00:31.361Z,3.50
2023-05-05T23:02:57.781Z,3.15
2023-05-05T23:05:24.252Z,3.20
2023-05-05T23:07:50.744Z,3.28
2023-05-05T23:10:17.161Z,4.45
2023-05-05T23:12:43.554Z,4.55
2023-05-05T23:15:10.698Z,4.43
2023-05-05T23:17:37.412Z,3.50
2023-05-05T23:20:04.361Z,3.55
2023-05-05T23:22:30.787Z,3.45
2023-05-05T23:24:57.156Z,3.42
2023-05-05T23:27:23.666Z,3.13
2023-05-05T23:29:50.030Z,3.40
2023-05-05T23:32:16.473Z,3.58
2023-05-05T23:34:42.795Z,4.43
2023-05-05T23:37:09.146Z,3.55
2023-05-05T23:39:35.596Z,4.07
2023-05-05T23:42:01.992Z,3.83
2023-05-05T23:44:28.382Z,4.38
2023-05-05T23:46:54.793Z,4.65
2023-05-05T23:49:21.243Z,3.50
2023-05-05T23:51:47.630Z,4.10
2023-05-05T23:54:14.005Z,3.97
2023-05-05T23:56:41.079Z,3.63
2023-05-05T23:59:07.432Z,4.95
